createdAt,value
2023-04-24T00:01:40.328Z,99.90
2023-04-24T00:07:33.994Z,99.90
2023-04-24T00:13:29.869Z,99.90
2023-04-24T00:19:23.665Z,99.90
2023-04-24T00:25:17.119Z,99.90
2023-04-24T00:31:11.942Z,99.90
2023-04-24T00:37:04.984Z,99.90
2023-04-24T00:42:58.523Z,99.90
2023-04-24T00:48:52.941Z,99.90
2023-04-24T00:54:46.182Z,99.90
2023-04-24T01:00:40.133Z,99.90
2023-04-24T01:06:35.279Z,99.90
2023-04-24T01:12:29.369Z,99.90
2023-04-24T01:18:23.312Z,99.90
2023-04-24T01:24:20.410Z,99.90
2023-04-24T01:30:15.046Z,99.90
2023-04-24T01:36:09.083Z,99.90
2023-04-24T01:48:26.202Z,99.90
2023-04-24T01:54:19.171Z,99.90
2023-04-24T02:00:14.684Z,99.90
2023-04-24T02:06:08.252Z,99.90
2023-04-24T02:12:01.894Z,99.90
2023-04-24T02:17:56.809Z,99.90
2023-04-24T02:23:50.333Z,99.90
2023-04-24T02:29:44.121Z,99.90
2023-04-24T02:35:39.241Z,99.90
2023-04-24T02:41:33.657Z,99.90
2023-04-24T02:47:27.219Z,99.90
2023-04-24T02:53:22.062Z,99.90
2023-04-24T02:59:15.563Z,99.90
2023-04-24T03:05:10.342Z,99.90
2023-04-24T03:11:04.688Z,99.90
2023-04-24T03:16:58.144Z,99.90
2023-04-24T03:22:51.546Z,99.90
2023-04-24T03:28:46.287Z,99.90
2023-04-24T03:34:39.740Z,99.90
2023-04-24T03:40:35.417Z,99.90
2023-04-24T03:46:32.056Z,99.90
2023-04-24T03:52:28.099Z,99.90
2023-04-24T03:58:22.072Z,99.90
2023-04-24T04:04:18.426Z,99.90
2023-04-24T04:10:13.260Z,99.90
2023-04-24T04:16:06.746Z,99.90
2023-04-24T04:22:01.199Z,99.90
2023-04-24T04:28:03.448Z,99.90
2023-04-24T04:33:57.109Z,99.90
2023-04-24T04:39:52.121Z,99.90
2023-04-24T04:45:49.359Z,99.90
2023-04-24T04:52:01.394Z,99.90
2023-04-24T04:57:58.234Z,99.90
2023-04-24T05:03:51.505Z,99.90
2023-04-24T05:09:46.188Z,99.90
2023-04-24T05:15:41.514Z,99.90
2023-04-24T05:21:34.660Z,99.90
2023-04-24T05:27:27.974Z,99.90
2023-04-24T05:33:23.041Z,99.90
2023-04-24T05:39:17.392Z,99.90
2023-04-24T05:45:16.211Z,99.90
2023-04-24T05:51:12.123Z,99.90
2023-04-24T05:57:08.467Z,99.90
2023-04-24T06:03:15.718Z,99.90
2023-04-24T06:09:10.676Z,99.90
2023-04-24T06:15:03.820Z,99.90
2023-04-24T06:21:14.962Z,99.90
2023-04-24T06:27:10.038Z,99.90
2023-04-24T06:33:16.891Z,99.90
2023-04-24T06:39:13.245Z,92.40
2023-04-24T06:45:08.387Z,92.20
2023-04-24T06:51:01.877Z,90.00
2023-04-24T06:56:55.572Z,90.50
2023-04-24T07:02:49.999Z,84.30
2023-04-24T07:08:44.599Z,78.10
2023-04-24T07:14:38.100Z,74.20
2023-04-24T07:20:32.870Z,75.60
2023-04-24T07:26:26.411Z,61.60
2023-04-24T07:32:19.844Z,66.90
2023-04-24T07:38:14.250Z,62.00
2023-04-24T07:44:07.454Z,61.50
2023-04-24T07:50:01.179Z,59.30
2023-04-24T07:55:56.949Z,42.00
2023-04-24T08:01:49.884Z,35.70
2023-04-24T08:07:44.033Z,36.90
2023-04-24T08:13:38.717Z,30.00
2023-04-24T08:19:31.815Z,34.30
2023-04-24T08:25:25.683Z,41.50
2023-04-24T08:31:20.578Z,34.90
2023-04-24T08:37:13.878Z,43.10
2023-04-24T08:43:07.588Z,32.30
2023-04-24T08:49:02.757Z,29.50
2023-04-24T08:54:57.353Z,40.10
2023-04-24T09:00:51.110Z,38.00
2023-04-24T09:06:46.306Z,38.50
2023-04-24T09:12:39.366Z,29.80
2023-04-24T09:18:32.854Z,35.40
2023-04-24T09:24:27.275Z,25.60
2023-04-24T09:30:24.188Z,30.70
2023-04-24T09:36:20.356Z,22.90
2023-04-24T09:42:15.185Z,25.20
2023-04-24T09:48:12.179Z,28.90
2023-04-24T09:54:06.135Z,25.10
2023-04-24T10:00:01.331Z,29.30
2023-04-24T10:06:10.345Z,19.80
2023-04-24T10:12:04.198Z,15.70
2023-04-24T10:18:00.833Z,17.00
2023-04-24T10:23:54.559Z,13.30
2023-04-24T10:29:49.525Z,7.00
2023-04-24T10:35:47.099Z,4.60
2023-04-24T10:41:41.208Z,3.30
2023-04-24T10:47:42.160Z,2.50
2023-04-24T10:53:37.956Z,5.70
2023-04-24T10:59:38.794Z,4.00
2023-04-24T11:05:53.230Z,9.20
2023-04-24T11:11:49.326Z,9.60
2023-04-24T11:17:44.835Z,2.10
2023-04-24T11:23:39.057Z,1.00
2023-04-24T11:29:45.200Z,3.80
2023-04-24T11:35:42.418Z,1.00
2023-04-24T11:41:36.061Z,1.00
2023-04-24T11:47:35.008Z,1.00
2023-04-24T11:53:28.176Z,1.00
2023-04-24T11:59:21.209Z,1.00
2023-04-24T12:05:23.979Z,1.00
2023-04-24T12:11:19.825Z,1.00
2023-04-24T12:17:12.857Z,1.00
2023-04-24T12:23:07.164Z,1.00
2023-04-24T12:29:05.327Z,1.00
2023-04-24T12:34:58.755Z,1.00
2023-04-24T12:41:05.513Z,1.00
2023-04-24T12:46:59.163Z,1.00
2023-04-24T12:52:52.238Z,1.00
2023-04-24T12:58:46.621Z,1.00
2023-04-24T13:04:39.771Z,1.00
2023-04-24T13:10:33.233Z,1.00
2023-04-24T13:16:27.975Z,1.00
2023-04-24T13:22:20.947Z,1.00
2023-04-24T13:28:13.891Z,1.00
2023-04-24T13:34:08.700Z,1.00
2023-04-24T13:40:01.700Z,1.00
2023-04-24T13:45:55.336Z,1.40
2023-04-24T13:51:50.300Z,49.50
2023-04-24T13:57:43.309Z,66.80
2023-04-24T14:03:37.092Z,78.50
2023-04-24T14:09:31.576Z,72.90
2023-04-24T14:15:24.541Z,66.30
2023-04-24T14:21:17.979Z,66.60
2023-04-24T14:27:12.759Z,61.20
2023-04-24T14:33:06.298Z,43.80
2023-04-24T14:38:59.370Z,28.90
2023-04-24T14:44:53.752Z,35.70
2023-04-24T14:50:47.206Z,38.20
2023-04-24T14:56:41.836Z,33.70
2023-04-24T15:02:38.997Z,31.30
2023-04-24T15:08:32.179Z,19.20
2023-04-24T15:14:25.181Z,33.00
2023-04-24T15:20:20.321Z,72.10
2023-04-24T15:26:13.267Z,99.90
2023-04-24T15:32:08.882Z,99.90
2023-04-24T15:38:05.565Z,99.90
2023-04-24T15:43:58.533Z,99.90
2023-04-24T15:49:51.502Z,99.90
2023-04-24T15:55:46.026Z,99.90
2023-04-24T16:01:39.262Z,99.90
2023-04-24T16:07:33.111Z,99.90
2023-04-24T16:13:29.060Z,99.90
2023-04-24T16:19:22.147Z,99.90
2023-04-24T16:25:15.441Z,99.90
2023-04-24T16:31:10.643Z,99.90
2023-04-24T16:37:04.432Z,99.90
2023-04-24T16:42:57.852Z,99.90
2023-04-24T16:48:52.302Z,99.90
2023-04-24T16:54:45.457Z,99.90
2023-04-24T17:00:38.630Z,99.90
2023-04-24T17:06:33.644Z,99.90
2023-04-24T17:12:26.662Z,99.90
2023-04-24T17:18:20.810Z,99.90
2023-04-24T17:24:15.136Z,99.90
2023-04-24T17:30:09.793Z,99.90
2023-04-24T17:36:02.895Z,99.90
2023-04-24T17:41:57.202Z,99.90
2023-04-24T17:47:51.700Z,99.90
2023-04-24T17:53:44.767Z,99.90
2023-04-24T17:59:39.589Z,99.90
2023-04-24T18:05:33.851Z,99.90
2023-04-24T18:11:27.698Z,99.90
2023-04-24T18:17:21.972Z,99.90
2023-04-24T18:23:15.385Z,99.90
2023-04-24T18:29:08.798Z,99.90
2023-04-24T18:35:03.753Z,99.90
2023-04-24T18:40:57.585Z,99.90
2023-04-24T18:46:50.891Z,99.90
2023-04-24T18:52:45.261Z,99.90
2023-04-24T18:58:38.638Z,99.90
2023-04-24T19:04:32.194Z,99.90
2023-04-24T19:10:27.617Z,99.90
2023-04-24T19:16:20.760Z,99.90
2023-04-24T19:22:13.820Z,99.90
2023-04-24T19:28:09.251Z,99.90
2023-04-24T19:34:02.694Z,99.90
2023-04-24T19:39:55.748Z,99.90
2023-04-24T19:45:50.926Z,99.90
2023-04-24T19:51:44.452Z,99.90
2023-04-24T19:57:38.133Z,99.90
2023-04-24T20:03:34.319Z,99.90
2023-04-24T20:09:28.384Z,99.90
2023-04-24T20:15:22.636Z,99.90
2023-04-24T20:21:16.996Z,99.90
2023-04-24T20:27:10.630Z,99.90
2023-04-24T20:33:04.165Z,99.90
2023-04-24T20:38:59.992Z,99.90
2023-04-24T20:44:53.405Z,99.90
2023-04-24T20:50:46.911Z,99.90
2023-04-24T20:56:41.702Z,99.90
2023-04-24T21:02:35.274Z,99.90
2023-04-24T21:08:28.331Z,99.90
2023-04-24T21:14:22.686Z,99.90
2023-04-24T21:20:16.380Z,99.90
2023-04-24T21:26:09.874Z,99.90
2023-04-24T21:32:04.751Z,99.90
2023-04-24T21:37:58.533Z,99.90
2023-04-24T21:43:52.279Z,99.90
2023-04-24T21:49:47.400Z,99.90
2023-04-24T21:55:40.510Z,99.90
2023-04-24T22:01:34.226Z,99.90
2023-04-24T22:07:28.798Z,99.90
2023-04-24T22:13:22.252Z,99.90
2023-04-24T22:19:15.899Z,99.90
2023-04-24T22:25:11.431Z,99.90
2023-04-24T22:31:05.216Z,99.90
2023-04-24T22:36:58.206Z,99.90
2023-04-24T22:42:53.280Z,99.90
2023-04-24T22:48:48.676Z,99.90
2023-04-24T22:54:41.812Z,99.90
2023-04-24T23:00:36.650Z,99.90
2023-04-24T23:06:30.844Z,99.90
2023-04-24T23:12:24.439Z,1.00
2023-04-24T23:18:19.643Z,1.00
2023-04-24T23:24:12.674Z,1.00
2023-04-24T23:30:08.207Z,1.00
2023-04-24T23:36:02.977Z,1.00
2023-04-24T23:41:56.330Z,1.00
2023-04-24T23:47:49.316Z,1.00
2023-04-24T23:53:44.119Z,1.00
2023-04-24T23:59:37.509Z,1.00
